Airfield :
LOGIN :

Register | Disclaimer

   EN    FR    IT 

 










Legend :    VFR   Marginal VFR   IFR   Intensive IFR   Very Intensive IFR
Visi :
Ceiling :
>= 8 km
>= 3000ft
5 to 8 km
1000 to 3000 ft
1500m to 5 km
500 to 1000 ft
800 to 1500m
200 to 500 ft
< 800m
< 200 ft
Symbols :   Thunderstorms  Fog  Heavy snow  Heavy precipitations  Wind > 20 kt
SIGMETs :     Misc.  Thunderstorms  Icing  Turbulence  Mountain Waves  Volcanic Ashes







- Airport Elevation : 456 ft
- IATA code : QPZ


LIMS - San Damiano Air Base Piacenza

CURRENT METAR :
  • 241455Z 31006KT 280V350 3000 BR FEW010 SCT018 BKN060 14/14 Q1022 RMK OVC VIS MIN 3000 WIND THR30 30007KT YLO

EXPIRED METARs :
  • 241355Z 29005KT 250V320 3000 BR SCT010 BKN018 14/14 Q1023 RMK OVC VIS MIN 3000 WIND THR30 28005KT YLO
  • 241255Z 33005KT 2500 BR SCT008 BKN015 14/14 Q1023

TAF TAF LIMS
Valid from the 24 at 15:00 until the 25 at 00:00 UTC


241400Z 2415/2424 VRB05KT 2000 BR FEW006 SCT020
No reported NOTAMs for that airfield.



MET'MAP, your aeronautical weather chart ! - Copyright ORBIFLY December 2007 - Disclaimer

ORBIFLY MET'MAP TEAM :

Programming & Development : Alexandra Zaïnal
Concept & Development : Baudouin d'Aumeries
Co-Development & Prog : Marc-Olivier Méhu
Technical & hardware support : Manuel Goepfert

Contact : metmap@orbifly.com




SOURCES & CREDITS :

   NOAA